Miracema do Tocantins, Brazil
Current Conditions -  °F | °C
As of 10:00 PM on Friday 31 Oct 2014 (Local Time) from SBPJ Reporting Station
Scattered Clouds Scattered Clouds  
Wind Chill: 73°   Ceiling: Unl
Heat Index: 73°   Visibility: 6mi
Dew Point: 70°   Wind: 6mph
Humidity: 88%   Direction: 120°ESE
Pressure: 29.91"   Gusts: NA
Location:  9.55°S, 48.4°W
Report Text: SBPJ 010100Z 12005KT 9999 FEW006 SCT015 23/21 Q1013
Loading
Personal Weather Stations






























Interactive Weather Map
Tropical Storm Tracking
New forecast layout! Learn more

10-Day Weather Forecast

Advertisements
Track Severe Weather on mobile